sensor_id;sensor_type;location;lat;lon;timestamp;pressure;altitude;pressure_sealevel;temperature;humidity
64211;BME280;50528;48.514;14.394;2023-07-24T00:00:19;93496.91;;;19.54;47.90
64211;BME280;50528;48.514;14.394;2023-07-24T00:01:13;93500.48;;;19.51;47.99
64211;BME280;50528;48.514;14.394;2023-07-24T00:01:47;93497.86;;;19.50;47.94
64211;BME280;50528;48.514;14.394;2023-07-24T00:02:20;93496.41;;;19.50;48.12
64211;BME280;50528;48.514;14.394;2023-07-24T00:02:54;93497.45;;;19.51;48.04
64211;BME280;50528;48.514;14.394;2023-07-24T00:03:29;93497.23;;;19.51;47.98
64211;BME280;50528;48.514;14.394;2023-07-24T00:04:02;93501.82;;;19.51;48.13
64211;BME280;50528;48.514;14.394;2023-07-24T00:04:35;93497.48;;;19.50;48.23
64211;BME280;50528;48.514;14.394;2023-07-24T00:05:09;93499.38;;;19.51;48.33
64211;BME280;50528;48.514;14.394;2023-07-24T00:05:43;93498.96;;;19.50;48.16
64211;BME280;50528;48.514;14.394;2023-07-24T00:06:16;93502.22;;;19.50;47.98
64211;BME280;50528;48.514;14.394;2023-07-24T00:06:49;93502.56;;;19.51;47.87
64211;BME280;50528;48.514;14.394;2023-07-24T00:07:23;93498.05;;;19.49;48.05
64211;BME280;50528;48.514;14.394;2023-07-24T00:07:56;93497.23;;;19.51;47.97
64211;BME280;50528;48.514;14.394;2023-07-24T00:08:29;93497.05;;;19.52;47.98
64211;BME280;50528;48.514;14.394;2023-07-24T00:09:02;93498.45;;;19.52;48.07
64211;BME280;50528;48.514;14.394;2023-07-24T00:09:36;93498.34;;;19.52;48.03
64211;BME280;50528;48.514;14.394;2023-07-24T00:10:09;93496.84;;;19.52;48.11
64211;BME280;50528;48.514;14.394;2023-07-24T00:10:42;93495.65;;;19.53;48.17
64211;BME280;50528;48.514;14.394;2023-07-24T00:11:15;93492.95;;;19.52;48.16
64211;BME280;50528;48.514;14.394;2023-07-24T00:11:49;93493.77;;;19.52;48.17
64211;BME280;50528;48.514;14.394;2023-07-24T00:12:25;93493.51;;;19.51;48.32
64211;BME280;50528;48.514;14.394;2023-07-24T00:13:01;93493.10;;;19.51;48.29
64211;BME280;50528;48.514;14.394;2023-07-24T00:13:38;93492.19;;;19.51;48.16
64211;BME280;50528;48.514;14.394;2023-07-24T00:14:11;93491.44;;;19.49;48.22
64211;BME280;50528;48.514;14.394;2023-07-24T00:14:44;93491.13;;;19.49;47.99
64211;BME280;50528;48.514;14.394;2023-07-24T00:15:18;93492.10;;;19.49;48.04
64211;BME280;50528;48.514;14.394;2023-07-24T00:15:51;93490.98;;;19.49;48.18
64211;BME280;50528;48.514;14.394;2023-07-24T00:16:24;93487.30;;;19.49;48.09
64211;BME280;50528;48.514;14.394;2023-07-24T00:16:58;93487.43;;;19.48;48.03
64211;BME280;50528;48.514;14.394;2023-07-24T00:17:31;93484.13;;;19.48;48.07
64211;BME280;50528;48.514;14.394;2023-07-24T00:18:05;93486.42;;;19.48;47.98
64211;BME280;50528;48.514;14.394;2023-07-24T00:18:38;93488.63;;;19.47;48.17
64211;BME280;50528;48.514;14.394;2023-07-24T00:19:11;93486.08;;;19.48;48.11
64211;BME280;50528;48.514;14.394;2023-07-24T00:19:44;93487.21;;;19.48;48.09
64211;BME280;50528;48.514;14.394;2023-07-24T00:20:18;93485.95;;;19.47;48.05
64211;BME280;50528;48.514;14.394;2023-07-24T00:20:51;93484.73;;;19.49;48.12
64211;BME280;50528;48.514;14.394;2023-07-24T00:21:24;93481.61;;;19.46;48.06
64211;BME280;50528;48.514;14.394;2023-07-24T00:21:57;93481.05;;;19.47;48.03
64211;BME280;50528;48.514;14.394;2023-07-24T00:22:31;93480.34;;;19.46;48.20
64211;BME280;50528;48.514;14.394;2023-07-24T00:23:05;93483.77;;;19.47;48.20
64211;BME280;50528;48.514;14.394;2023-07-24T00:23:38;93483.68;;;19.46;48.13
64211;BME280;50528;48.514;14.394;2023-07-24T00:24:12;93481.94;;;19.45;48.10
64211;BME280;50528;48.514;14.394;2023-07-24T00:24:45;93479.70;;;19.45;48.13
64211;BME280;50528;48.514;14.394;2023-07-24T00:25:19;93477.73;;;19.45;48.23
64211;BME280;50528;48.514;14.394;2023-07-24T00:25:52;93474.80;;;19.44;48.17
64211;BME280;50528;48.514;14.394;2023-07-24T00:26:26;93477.03;;;19.45;48.30
64211;BME280;50528;48.514;14.394;2023-07-24T00:27:01;93476.02;;;19.45;48.36
64211;BME280;50528;48.514;14.394;2023-07-24T00:27:35;93471.77;;;19.43;48.54
64211;BME280;50528;48.514;14.394;2023-07-24T00:28:09;93474.59;;;19.43;48.62
64211;BME280;50528;48.514;14.394;2023-07-24T00:28:43;93474.34;;;19.44;48.55
64211;BME280;50528;48.514;14.394;2023-07-24T00:29:17;93473.77;;;19.43;48.74
64211;BME280;50528;48.514;14.394;2023-07-24T00:29:50;93474.75;;;19.43;48.95
64211;BME280;50528;48.514;14.394;2023-07-24T00:30:23;93471.85;;;19.40;49.04
64211;BME280;50528;48.514;14.394;2023-07-24T00:30:57;93471.92;;;19.41;49.07
64211;BME280;50528;48.514;14.394;2023-07-24T00:31:30;93469.97;;;19.40;49.10
64211;BME280;50528;48.514;14.394;2023-07-24T00:32:04;93474.67;;;19.40;49.12
64211;BME280;50528;48.514;14.394;2023-07-24T00:32:37;93474.57;;;19.40;49.14
64211;BME280;50528;48.514;14.394;2023-07-24T00:33:11;93472.23;;;19.38;49.21
64211;BME280;50528;48.514;14.394;2023-07-24T00:33:44;93468.40;;;19.37;49.20
64211;BME280;50528;48.514;14.394;2023-07-24T00:34:17;93472.35;;;19.37;49.21
64211;BME280;50528;48.514;14.394;2023-07-24T00:34:50;93469.53;;;19.37;49.24
64211;BME280;50528;48.514;14.394;2023-07-24T00:35:25;93470.46;;;19.36;49.20
64211;BME280;50528;48.514;14.394;2023-07-24T00:35:59;93470.40;;;19.37;49.09
64211;BME280;50528;48.514;14.394;2023-07-24T00:36:32;93466.64;;;19.36;48.98
64211;BME280;50528;48.514;14.394;2023-07-24T00:37:06;93463.13;;;19.36;48.91
64211;BME280;50528;48.514;14.394;2023-07-24T00:37:40;93466.39;;;19.35;48.99
64211;BME280;50528;48.514;14.394;2023-07-24T00:38:13;93466.03;;;19.34;48.70
64211;BME280;50528;48.514;14.394;2023-07-24T00:38:46;93470.55;;;19.35;48.53
64211;BME280;50528;48.514;14.394;2023-07-24T00:39:20;93467.63;;;19.34;48.43
64211;BME280;50528;48.514;14.394;2023-07-24T00:39:53;93465.02;;;19.34;48.41
64211;BME280;50528;48.514;14.394;2023-07-24T00:40:26;93462.98;;;19.34;48.74
64211;BME280;50528;48.514;14.394;2023-07-24T00:41:00;93464.80;;;19.34;48.91
64211;BME280;50528;48.514;14.394;2023-07-24T00:41:33;93463.65;;;19.34;48.94
64211;BME280;50528;48.514;14.394;2023-07-24T00:42:06;93461.67;;;19.34;48.84
64211;BME280;50528;48.514;14.394;2023-07-24T00:42:40;93460.98;;;19.34;48.92
64211;BME280;50528;48.514;14.394;2023-07-24T00:43:13;93463.14;;;19.33;48.76
64211;BME280;50528;48.514;14.394;2023-07-24T00:43:47;93464.02;;;19.32;48.94
64211;BME280;50528;48.514;14.394;2023-07-24T00:44:20;93459.60;;;19.32;48.65
64211;BME280;50528;48.514;14.394;2023-07-24T00:44:53;93462.77;;;19.31;48.74
64211;BME280;50528;48.514;14.394;2023-07-24T00:45:27;93459.58;;;19.31;48.98
64211;BME280;50528;48.514;14.394;2023-07-24T00:46:01;93461.64;;;19.30;49.14
64211;BME280;50528;48.514;14.394;2023-07-24T00:46:36;93461.16;;;19.30;49.15
64211;BME280;50528;48.514;14.394;2023-07-24T00:47:11;93456.42;;;19.27;49.35
64211;BME280;50528;48.514;14.394;2023-07-24T00:47:44;93459.59;;;19.27;49.49
64211;BME280;50528;48.514;14.394;2023-07-24T00:48:18;93456.00;;;19.25;49.48
64211;BME280;50528;48.514;14.394;2023-07-24T00:48:52;93457.90;;;19.25;49.44
64211;BME280;50528;48.514;14.394;2023-07-24T00:49:27;93460.78;;;19.24;49.47
64211;BME280;50528;48.514;14.394;2023-07-24T00:50:00;93462.50;;;19.23;49.43
64211;BME280;50528;48.514;14.394;2023-07-24T00:50:35;93459.20;;;19.23;49.64
64211;BME280;50528;48.514;14.394;2023-07-24T00:51:09;93452.64;;;19.19;49.61
64211;BME280;50528;48.514;14.394;2023-07-24T00:51:43;93460.59;;;19.27;49.34
64211;BME280;50528;48.514;14.394;2023-07-24T00:52:17;93456.67;;;19.30;48.97
64211;BME280;50528;48.514;14.394;2023-07-24T00:52:51;93455.48;;;19.27;48.83
64211;BME280;50528;48.514;14.394;2023-07-24T00:53:24;93452.97;;;19.37;48.51
64211;BME280;50528;48.514;14.394;2023-07-24T00:54:00;93456.44;;;19.47;48.28
64211;BME280;50528;48.514;14.394;2023-07-24T00:54:34;93457.91;;;19.49;48.27
64211;BME280;50528;48.514;14.394;2023-07-24T00:55:09;93454.05;;;19.51;48.17
64211;BME280;50528;48.514;14.394;2023-07-24T00:55:47;93452.23;;;19.46;48.41
64211;BME280;50528;48.514;14.394;2023-07-24T00:56:21;93452.30;;;19.48;48.35
64211;BME280;50528;48.514;14.394;2023-07-24T00:56:54;93454.35;;;19.49;48.48
64211;BME280;50528;48.514;14.394;2023-07-24T00:57:28;93452.92;;;19.48;48.44
64211;BME280;50528;48.514;14.394;2023-07-24T00:58:03;93451.46;;;19.51;48.51
64211;BME280;50528;48.514;14.394;2023-07-24T00:58:37;93451.59;;;19.57;48.46
64211;BME280;50528;48.514;14.394;2023-07-24T00:59:11;93447.92;;;19.59;48.51
64211;BME280;50528;48.514;14.394;2023-07-24T00:59:47;93450.30;;;19.60;48.55
64211;BME280;50528;48.514;14.394;2023-07-24T01:00:20;93449.48;;;19.56;48.49
64211;BME280;50528;48.514;14.394;2023-07-24T01:00:54;93450.96;;;19.53;48.61
64211;BME280;50528;48.514;14.394;2023-07-24T01:01:28;93451.01;;;19.54;48.82
64211;BME280;50528;48.514;14.394;2023-07-24T01:02:02;93450.83;;;19.57;48.75
64211;BME280;50528;48.514;14.394;2023-07-24T01:02:36;93451.25;;;19.58;48.75
64211;BME280;50528;48.514;14.394;2023-07-24T01:03:11;93448.94;;;19.60;48.77
64211;BME280;50528;48.514;14.394;2023-07-24T01:03:45;93447.33;;;19.62;48.57
64211;BME280;50528;48.514;14.394;2023-07-24T01:04:18;93445.39;;;19.61;48.78
64211;BME280;50528;48.514;14.394;2023-07-24T01:04:52;93447.95;;;19.63;48.76
64211;BME280;50528;48.514;14.394;2023-07-24T01:05:26;93443.83;;;19.66;48.86
64211;BME280;50528;48.514;14.394;2023-07-24T01:06:01;93447.33;;;19.62;48.75
64211;BME280;50528;48.514;14.394;2023-07-24T01:06:35;93445.52;;;19.61;48.87
64211;BME280;50528;48.514;14.394;2023-07-24T01:07:08;93444.20;;;19.60;48.80
64211;BME280;50528;48.514;14.394;2023-07-24T01:07:42;93441.31;;;19.59;48.85
64211;BME280;50528;48.514;14.394;2023-07-24T01:08:15;93442.14;;;19.60;48.87
64211;BME280;50528;48.514;14.394;2023-07-24T01:08:49;93444.81;;;19.62;49.00
64211;BME280;50528;48.514;14.394;2023-07-24T01:09:22;93442.54;;;19.61;49.08
64211;BME280;50528;48.514;14.394;2023-07-24T01:09:56;93443.80;;;19.60;49.18
64211;BME280;50528;48.514;14.394;2023-07-24T01:10:29;93440.46;;;19.59;49.30
64211;BME280;50528;48.514;14.394;2023-07-24T01:11:46;93441.77;;;19.56;49.21
64211;BME280;50528;48.514;14.394;2023-07-24T01:12:43;93443.76;;;19.54;49.14
64211;BME280;50528;48.514;14.394;2023-07-24T01:13:24;93441.52;;;19.50;49.37
64211;BME280;50528;48.514;14.394;2023-07-24T01:14:04;93439.00;;;19.47;49.35
64211;BME280;50528;48.514;14.394;2023-07-24T01:14:50;93439.39;;;19.46;49.41
64211;BME280;50528;48.514;14.394;2023-07-24T01:15:34;93437.49;;;19.44;49.60
64211;BME280;50528;48.514;14.394;2023-07-24T01:16:12;93437.78;;;19.42;49.52
64211;BME280;50528;48.514;14.394;2023-07-24T01:16:47;93435.48;;;19.40;49.53
64211;BME280;50528;48.514;14.394;2023-07-24T01:17:24;93432.95;;;19.39;49.61
64211;BME280;50528;48.514;14.394;2023-07-24T01:18:09;93433.71;;;19.39;49.50
64211;BME280;50528;48.514;14.394;2023-07-24T01:18:43;93432.77;;;19.38;49.55
64211;BME280;50528;48.514;14.394;2023-07-24T01:19:38;93432.63;;;19.36;49.65
64211;BME280;50528;48.514;14.394;2023-07-24T01:20:15;93431.73;;;19.34;49.74
64211;BME280;50528;48.514;14.394;2023-07-24T01:20:53;93430.94;;;19.33;49.96
64211;BME280;50528;48.514;14.394;2023-07-24T01:21:39;93431.23;;;19.34;49.89
64211;BME280;50528;48.514;14.394;2023-07-24T01:23:04;93429.94;;;19.31;49.96
64211;BME280;50528;48.514;14.394;2023-07-24T01:24:30;93430.02;;;19.28;50.08
64211;BME280;50528;48.514;14.394;2023-07-24T01:25:32;93425.73;;;19.23;50.25
64211;BME280;50528;48.514;14.394;2023-07-24T01:26:10;93423.81;;;19.15;50.19
64211;BME280;50528;48.514;14.394;2023-07-24T01:26:43;93422.16;;;19.14;50.37
64211;BME280;50528;48.514;14.394;2023-07-24T01:27:23;93419.11;;;19.11;50.55
64211;BME280;50528;48.514;14.394;2023-07-24T01:27:58;93421.04;;;19.10;50.54
64211;BME280;50528;48.514;14.394;2023-07-24T01:28:31;93420.67;;;19.08;50.40
64211;BME280;50528;48.514;14.394;2023-07-24T01:29:05;93420.34;;;19.07;50.57
64211;BME280;50528;48.514;14.394;2023-07-24T01:29:38;93418.57;;;19.06;50.57
64211;BME280;50528;48.514;14.394;2023-07-24T01:30:19;93416.16;;;19.03;50.61
64211;BME280;50528;48.514;14.394;2023-07-24T01:30:53;93412.04;;;19.01;50.56
64211;BME280;50528;48.514;14.394;2023-07-24T01:31:26;93405.24;;;18.94;50.80
64211;BME280;50528;48.514;14.394;2023-07-24T01:32:00;93413.96;;;18.99;50.80
64211;BME280;50528;48.514;14.394;2023-07-24T01:32:34;93412.42;;;18.97;50.88
64211;BME280;50528;48.514;14.394;2023-07-24T01:33:07;93413.15;;;18.96;51.08
64211;BME280;50528;48.514;14.394;2023-07-24T01:33:40;93413.60;;;18.94;51.10
64211;BME280;50528;48.514;14.394;2023-07-24T01:34:14;93410.24;;;18.93;51.12
64211;BME280;50528;48.514;14.394;2023-07-24T01:34:47;93410.74;;;18.90;51.25
64211;BME280;50528;48.514;14.394;2023-07-24T01:35:21;93406.61;;;18.88;51.34
64211;BME280;50528;48.514;14.394;2023-07-24T01:35:57;93409.73;;;18.88;51.47
64211;BME280;50528;48.514;14.394;2023-07-24T01:36:32;93408.25;;;18.86;51.59
64211;BME280;50528;48.514;14.394;2023-07-24T01:37:06;93403.50;;;18.84;51.55
64211;BME280;50528;48.514;14.394;2023-07-24T01:37:39;93407.02;;;18.86;51.59
64211;BME280;50528;48.514;14.394;2023-07-24T01:38:14;93404.33;;;18.85;51.65
64211;BME280;50528;48.514;14.394;2023-07-24T01:38:49;93405.75;;;18.84;51.80
64211;BME280;50528;48.514;14.394;2023-07-24T01:39:24;93405.88;;;18.84;51.83
64211;BME280;50528;48.514;14.394;2023-07-24T01:39:58;93402.54;;;18.82;51.81
64211;BME280;50528;48.514;14.394;2023-07-24T01:40:32;93406.80;;;18.82;51.79
64211;BME280;50528;48.514;14.394;2023-07-24T01:41:06;93401.41;;;18.81;51.87
64211;BME280;50528;48.514;14.394;2023-07-24T01:41:42;93404.98;;;18.80;51.82
64211;BME280;50528;48.514;14.394;2023-07-24T01:42:16;93403.27;;;18.80;51.87
64211;BME280;50528;48.514;14.394;2023-07-24T01:42:49;93406.09;;;18.80;51.81
64211;BME280;50528;48.514;14.394;2023-07-24T01:43:24;93403.59;;;18.80;51.83
64211;BME280;50528;48.514;14.394;2023-07-24T01:44:00;93405.23;;;18.80;51.85
64211;BME280;50528;48.514;14.394;2023-07-24T01:44:34;93402.85;;;18.79;51.88
64211;BME280;50528;48.514;14.394;2023-07-24T01:45:07;93401.55;;;18.79;52.00
64211;BME280;50528;48.514;14.394;2023-07-24T01:45:41;93403.69;;;18.79;51.87
64211;BME280;50528;48.514;14.394;2023-07-24T01:46:14;93402.80;;;18.79;52.14
64211;BME280;50528;48.514;14.394;2023-07-24T01:46:48;93405.73;;;18.79;52.12
64211;BME280;50528;48.514;14.394;2023-07-24T01:47:22;93400.93;;;18.77;52.29
64211;BME280;50528;48.514;14.394;2023-07-24T01:47:56;93400.14;;;18.77;52.33
64211;BME280;50528;48.514;14.394;2023-07-24T01:48:29;93395.71;;;18.75;52.30
64211;BME280;50528;48.514;14.394;2023-07-24T01:50:43;93397.48;;;18.66;52.43
64211;BME280;50528;48.514;14.394;2023-07-24T01:51:17;93401.04;;;18.59;52.36
64211;BME280;50528;48.514;14.394;2023-07-24T01:51:50;93391.47;;;18.50;52.69
64211;BME280;50528;48.514;14.394;2023-07-24T01:52:25;93401.64;;;18.56;52.91
64211;BME280;50528;48.514;14.394;2023-07-24T01:52:58;93403.27;;;18.55;52.96
64211;BME280;50528;48.514;14.394;2023-07-24T01:53:32;93399.89;;;18.53;53.01
64211;BME280;50528;48.514;14.394;2023-07-24T01:54:05;93402.04;;;18.52;52.97
64211;BME280;50528;48.514;14.394;2023-07-24T01:54:38;93402.48;;;18.51;52.92
64211;BME280;50528;48.514;14.394;2023-07-24T01:55:12;93403.41;;;18.50;53.17
64211;BME280;50528;48.514;14.394;2023-07-24T01:55:45;93405.69;;;18.49;53.16
64211;BME280;50528;48.514;14.394;2023-07-24T01:56:19;93405.34;;;18.48;53.33
64211;BME280;50528;48.514;14.394;2023-07-24T01:56:52;93402.25;;;18.46;53.08
64211;BME280;50528;48.514;14.394;2023-07-24T01:57:25;93401.59;;;18.43;53.10
64211;BME280;50528;48.514;14.394;2023-07-24T01:57:59;93403.28;;;18.44;53.31
64211;BME280;50528;48.514;14.394;2023-07-24T01:58:32;93398.02;;;18.38;53.26
64211;BME280;50528;48.514;14.394;2023-07-24T01:59:05;93401.20;;;18.38;53.28
64211;BME280;50528;48.514;14.394;2023-07-24T01:59:39;93398.33;;;18.35;53.45
64211;BME280;50528;48.514;14.394;2023-07-24T02:00:12;93398.25;;;18.34;53.44
64211;BME280;50528;48.514;14.394;2023-07-24T02:00:47;93401.96;;;18.30;53.48
64211;BME280;50528;48.514;14.394;2023-07-24T02:01:20;93397.58;;;18.26;53.56
64211;BME280;50528;48.514;14.394;2023-07-24T02:01:54;93396.20;;;18.25;53.48
64211;BME280;50528;48.514;14.394;2023-07-24T02:02:27;93396.70;;;18.24;53.58
64211;BME280;50528;48.514;14.394;2023-07-24T02:03:01;93397.23;;;18.21;53.64
64211;BME280;50528;48.514;14.394;2023-07-24T02:03:35;93396.05;;;18.22;53.78
64211;BME280;50528;48.514;14.394;2023-07-24T02:04:09;93395.35;;;18.20;53.83
64211;BME280;50528;48.514;14.394;2023-07-24T02:04:46;93393.35;;;18.18;53.89
64211;BME280;50528;48.514;14.394;2023-07-24T02:05:19;93393.46;;;18.17;54.03
64211;BME280;50528;48.514;14.394;2023-07-24T02:05:53;93391.63;;;18.12;53.94
64211;BME280;50528;48.514;14.394;2023-07-24T02:06:26;93393.28;;;18.12;54.00
64211;BME280;50528;48.514;14.394;2023-07-24T02:07:00;93390.41;;;18.09;53.96
64211;BME280;50528;48.514;14.394;2023-07-24T02:07:33;93391.39;;;18.08;54.08
64211;BME280;50528;48.514;14.394;2023-07-24T02:08:07;93391.91;;;18.09;53.99
64211;BME280;50528;48.514;14.394;2023-07-24T02:08:40;93390.63;;;18.08;53.89
64211;BME280;50528;48.514;14.394;2023-07-24T02:09:17;93391.22;;;18.07;53.97
64211;BME280;50528;48.514;14.394;2023-07-24T02:09:51;93392.02;;;18.07;53.92
64211;BME280;50528;48.514;14.394;2023-07-24T02:10:24;93393.53;;;18.06;53.91
64211;BME280;50528;48.514;14.394;2023-07-24T02:10:57;93391.88;;;18.06;53.88
64211;BME280;50528;48.514;14.394;2023-07-24T02:11:31;93391.97;;;18.07;53.88
64211;BME280;50528;48.514;14.394;2023-07-24T02:12:05;93389.79;;;18.07;53.84
64211;BME280;50528;48.514;14.394;2023-07-24T02:12:38;93387.89;;;18.06;53.75
64211;BME280;50528;48.514;14.394;2023-07-24T02:13:11;93389.17;;;18.06;53.77
64211;BME280;50528;48.514;14.394;2023-07-24T02:13:53;93389.08;;;18.06;53.59
64211;BME280;50528;48.514;14.394;2023-07-24T02:14:26;93390.94;;;18.05;53.73
64211;BME280;50528;48.514;14.394;2023-07-24T02:15:00;93389.02;;;18.06;53.62
64211;BME280;50528;48.514;14.394;2023-07-24T02:15:33;93389.94;;;18.07;53.66
64211;BME280;50528;48.514;14.394;2023-07-24T02:16:07;93389.94;;;18.07;53.68
64211;BME280;50528;48.514;14.394;2023-07-24T02:16:40;93390.41;;;18.08;53.66
64211;BME280;50528;48.514;14.394;2023-07-24T02:17:14;93388.72;;;18.09;53.62
64211;BME280;50528;48.514;14.394;2023-07-24T02:17:47;93388.31;;;18.10;53.73
64211;BME280;50528;48.514;14.394;2023-07-24T02:18:22;93387.18;;;18.07;53.80
64211;BME280;50528;48.514;14.394;2023-07-24T02:18:57;93386.48;;;18.08;53.98
64211;BME280;50528;48.514;14.394;2023-07-24T02:19:30;93387.21;;;18.09;54.10
64211;BME280;50528;48.514;14.394;2023-07-24T02:20:04;93388.80;;;18.09;54.04
64211;BME280;50528;48.514;14.394;2023-07-24T02:20:37;93385.46;;;18.09;53.98
64211;BME280;50528;48.514;14.394;2023-07-24T02:21:10;93386.15;;;18.08;53.99
64211;BME280;50528;48.514;14.394;2023-07-24T02:21:44;93388.13;;;18.08;53.91
64211;BME280;50528;48.514;14.394;2023-07-24T02:22:17;93386.13;;;18.07;54.04
64211;BME280;50528;48.514;14.394;2023-07-24T02:22:50;93388.81;;;18.08;53.93
64211;BME280;50528;48.514;14.394;2023-07-24T02:23:24;93388.10;;;18.08;54.03
64211;BME280;50528;48.514;14.394;2023-07-24T02:23:57;93386.18;;;18.08;54.33
64211;BME280;50528;48.514;14.394;2023-07-24T02:24:30;93386.98;;;18.06;54.33
64211;BME280;50528;48.514;14.394;2023-07-24T02:25:04;93386.69;;;18.05;54.53
64211;BME280;50528;48.514;14.394;2023-07-24T02:25:38;93389.53;;;18.04;54.59
64211;BME280;50528;48.514;14.394;2023-07-24T02:26:11;93384.73;;;18.02;54.70
64211;BME280;50528;48.514;14.394;2023-07-24T02:26:44;93386.90;;;18.01;54.65
64211;BME280;50528;48.514;14.394;2023-07-24T02:27:28;93388.25;;;18.00;54.89
64211;BME280;50528;48.514;14.394;2023-07-24T02:28:04;93385.72;;;17.96;54.89
64211;BME280;50528;48.514;14.394;2023-07-24T02:28:37;93380.95;;;17.92;54.90
64211;BME280;50528;48.514;14.394;2023-07-24T02:29:11;93381.98;;;17.93;55.16
64211;BME280;50528;48.514;14.394;2023-07-24T02:29:44;93382.44;;;17.91;55.15
64211;BME280;50528;48.514;14.394;2023-07-24T02:30:17;93381.94;;;17.92;55.14
64211;BME280;50528;48.514;14.394;2023-07-24T02:30:50;93385.73;;;17.92;55.33
64211;BME280;50528;48.514;14.394;2023-07-24T02:31:25;93383.91;;;17.92;55.26
64211;BME280;50528;48.514;14.394;2023-07-24T02:31:59;93384.41;;;17.89;55.28
64211;BME280;50528;48.514;14.394;2023-07-24T02:32:32;93385.98;;;17.88;55.41
64211;BME280;50528;48.514;14.394;2023-07-24T02:33:06;93388.36;;;17.87;55.43
64211;BME280;50528;48.514;14.394;2023-07-24T02:33:39;93386.71;;;17.86;55.40
64211;BME280;50528;48.514;14.394;2023-07-24T02:34:13;93388.38;;;17.86;55.40
64211;BME280;50528;48.514;14.394;2023-07-24T02:34:46;93384.95;;;17.84;55.50
64211;BME280;50528;48.514;14.394;2023-07-24T02:35:19;93386.75;;;17.85;55.66
64211;BME280;50528;48.514;14.394;2023-07-24T02:35:53;93387.31;;;17.86;55.45
64211;BME280;50528;48.514;14.394;2023-07-24T02:36:26;93390.02;;;17.85;55.64
64211;BME280;50528;48.514;14.394;2023-07-24T02:37:00;93390.18;;;17.84;55.82
64211;BME280;50528;48.514;14.394;2023-07-24T02:37:34;93389.09;;;17.83;55.69
64211;BME280;50528;48.514;14.394;2023-07-24T02:38:08;93387.36;;;17.82;55.69
64211;BME280;50528;48.514;14.394;2023-07-24T02:38:43;93384.38;;;17.82;55.69
64211;BME280;50528;48.514;14.394;2023-07-24T02:39:16;93379.81;;;17.82;55.64
64211;BME280;50528;48.514;14.394;2023-07-24T02:39:51;93378.48;;;17.82;55.78
64211;BME280;50528;48.514;14.394;2023-07-24T02:40:25;93382.17;;;17.83;55.94
64211;BME280;50528;48.514;14.394;2023-07-24T02:40:59;93380.27;;;17.85;55.55
64211;BME280;50528;48.514;14.394;2023-07-24T02:41:32;93377.02;;;17.83;55.37
64211;BME280;50528;48.514;14.394;2023-07-24T02:42:05;93378.10;;;17.82;55.32
64211;BME280;50528;48.514;14.394;2023-07-24T02:42:39;93382.63;;;17.82;55.44
64211;BME280;50528;48.514;14.394;2023-07-24T02:43:12;93381.35;;;17.82;55.79
64211;BME280;50528;48.514;14.394;2023-07-24T02:43:45;93381.17;;;17.80;55.48
64211;BME280;50528;48.514;14.394;2023-07-24T02:44:18;93380.54;;;17.80;55.73
64211;BME280;50528;48.514;14.394;2023-07-24T02:44:52;93379.98;;;17.79;55.76
64211;BME280;50528;48.514;14.394;2023-07-24T02:45:27;93379.55;;;17.80;55.81
64211;BME280;50528;48.514;14.394;2023-07-24T02:46:02;93377.73;;;17.80;55.84
64211;BME280;50528;48.514;14.394;2023-07-24T02:46:36;93375.35;;;17.77;55.98
64211;BME280;50528;48.514;14.394;2023-07-24T02:47:09;93374.30;;;17.79;56.02
64211;BME280;50528;48.514;14.394;2023-07-24T02:47:43;93375.29;;;17.79;56.01
64211;BME280;50528;48.514;14.394;2023-07-24T02:48:16;93376.02;;;17.80;56.10
64211;BME280;50528;48.514;14.394;2023-07-24T02:48:49;93376.76;;;17.80;56.12
64211;BME280;50528;48.514;14.394;2023-07-24T02:49:23;93374.66;;;17.81;56.17
64211;BME280;50528;48.514;14.394;2023-07-24T02:49:56;93368.69;;;17.80;56.25
64211;BME280;50528;48.514;14.394;2023-07-24T02:50:29;93372.96;;;17.81;56.33
64211;BME280;50528;48.514;14.394;2023-07-24T02:51:03;93372.68;;;17.82;56.17
64211;BME280;50528;48.514;14.394;2023-07-24T02:51:36;93369.67;;;17.81;56.10
64211;BME280;50528;48.514;14.394;2023-07-24T02:52:09;93372.98;;;17.83;56.05
64211;BME280;50528;48.514;14.394;2023-07-24T02:52:43;93371.07;;;17.83;56.14
64211;BME280;50528;48.514;14.394;2023-07-24T02:53:16;93373.28;;;17.85;56.10
64211;BME280;50528;48.514;14.394;2023-07-24T02:53:49;93372.41;;;17.86;56.09
64211;BME280;50528;48.514;14.394;2023-07-24T02:54:25;93373.15;;;17.87;55.99
64211;BME280;50528;48.514;14.394;2023-07-24T02:54:59;93371.38;;;17.87;56.02
64211;BME280;50528;48.514;14.394;2023-07-24T02:55:33;93373.95;;;17.89;55.84
64211;BME280;50528;48.514;14.394;2023-07-24T02:56:06;93372.24;;;17.89;55.85
64211;BME280;50528;48.514;14.394;2023-07-24T02:56:40;93364.78;;;17.89;55.68
64211;BME280;50528;48.514;14.394;2023-07-24T02:57:13;93367.89;;;17.90;55.66
64211;BME280;50528;48.514;14.394;2023-07-24T02:57:46;93368.29;;;17.91;55.84
64211;BME280;50528;48.514;14.394;2023-07-24T02:58:20;93367.14;;;17.91;55.80
64211;BME280;50528;48.514;14.394;2023-07-24T02:58:54;93362.95;;;17.90;55.97
64211;BME280;50528;48.514;14.394;2023-07-24T02:59:29;93365.97;;;17.90;56.07
64211;BME280;50528;48.514;14.394;2023-07-24T03:00:03;93368.42;;;17.89;56.08
64211;BME280;50528;48.514;14.394;2023-07-24T03:00:36;93367.63;;;17.88;56.05
64211;BME280;50528;48.514;14.394;2023-07-24T03:01:09;93365.72;;;17.88;56.16
64211;BME280;50528;48.514;14.394;2023-07-24T03:01:43;93364.31;;;17.87;56.18
64211;BME280;50528;48.514;14.394;2023-07-24T03:02:17;93366.29;;;17.89;56.17
64211;BME280;50528;48.514;14.394;2023-07-24T03:02:52;93365.48;;;17.89;56.17
64211;BME280;50528;48.514;14.394;2023-07-24T03:03:25;93363.95;;;17.89;56.03
64211;BME280;50528;48.514;14.394;2023-07-24T03:03:59;93363.55;;;17.90;55.92